sensor_id;sensor_type;location;lat;lon;timestamp;pressure;altitude;pressure_sealevel;temperature;humidity
7200;BME280;3641;49.082;8.200;2023-04-21T00:00:55;100011.69;;;6.48;78.80
7200;BME280;3641;49.082;8.200;2023-04-21T00:03:22;100007.91;;;6.33;79.05
7200;BME280;3641;49.082;8.200;2023-04-21T00:05:48;100008.75;;;6.25;79.29
7200;BME280;3641;49.082;8.200;2023-04-21T00:08:15;100011.50;;;6.33;77.26
7200;BME280;3641;49.082;8.200;2023-04-21T00:10:44;100003.84;;;6.29;77.98
7200;BME280;3641;49.082;8.200;2023-04-21T00:13:12;100002.31;;;6.26;77.08
7200;BME280;3641;49.082;8.200;2023-04-21T00:15:38;100004.28;;;6.08;80.36
7200;BME280;3641;49.082;8.200;2023-04-21T00:18:05;99990.06;;;6.06;78.74
7200;BME280;3641;49.082;8.200;2023-04-21T00:20:32;99995.84;;;6.11;77.65
7200;BME280;3641;49.082;8.200;2023-04-21T00:22:59;99996.38;;;6.14;77.14
7200;BME280;3641;49.082;8.200;2023-04-21T00:25:25;99986.94;;;5.92;78.01
7200;BME280;3641;49.082;8.200;2023-04-21T00:27:53;99991.78;;;6.15;76.85
7200;BME280;3641;49.082;8.200;2023-04-21T00:30:20;99991.06;;;6.05;79.22
7200;BME280;3641;49.082;8.200;2023-04-21T00:32:46;99991.44;;;6.10;78.61
7200;BME280;3641;49.082;8.200;2023-04-21T00:35:13;100000.44;;;6.18;76.81
7200;BME280;3641;49.082;8.200;2023-04-21T00:37:39;99992.69;;;5.89;79.43
7200;BME280;3641;49.082;8.200;2023-04-21T00:40:07;99994.91;;;5.86;80.38
7200;BME280;3641;49.082;8.200;2023-04-21T00:42:34;99985.38;;;5.81;83.16
7200;BME280;3641;49.082;8.200;2023-04-21T00:45:02;99989.66;;;5.92;78.98
7200;BME280;3641;49.082;8.200;2023-04-21T00:47:28;99985.44;;;5.55;85.08
7200;BME280;3641;49.082;8.200;2023-04-21T00:49:56;99986.59;;;5.87;79.50
7200;BME280;3641;49.082;8.200;2023-04-21T00:52:22;99983.19;;;5.85;79.43
7200;BME280;3641;49.082;8.200;2023-04-21T00:54:49;99980.44;;;5.69;79.97
7200;BME280;3641;49.082;8.200;2023-04-21T00:57:16;99983.84;;;5.79;80.50
7200;BME280;3641;49.082;8.200;2023-04-21T00:59:42;99983.34;;;5.83;81.64
7200;BME280;3641;49.082;8.200;2023-04-21T01:02:10;99984.00;;;5.77;79.68
7200;BME280;3641;49.082;8.200;2023-04-21T01:04:37;99981.84;;;5.81;78.07
7200;BME280;3641;49.082;8.200;2023-04-21T01:07:05;99973.88;;;5.79;77.98
7200;BME280;3641;49.082;8.200;2023-04-21T01:09:32;99973.69;;;5.38;83.96
7200;BME280;3641;49.082;8.200;2023-04-21T01:12:00;99970.81;;;4.87;88.60
7200;BME280;3641;49.082;8.200;2023-04-21T01:14:27;99968.16;;;4.96;88.25
7200;BME280;3641;49.082;8.200;2023-04-21T01:16:54;99977.16;;;5.22;84.70
7200;BME280;3641;49.082;8.200;2023-04-21T01:19:22;99973.91;;;5.53;81.36
7200;BME280;3641;49.082;8.200;2023-04-21T01:21:51;99967.53;;;5.62;79.45
7200;BME280;3641;49.082;8.200;2023-04-21T01:24:22;99976.13;;;5.58;79.98
7200;BME280;3641;49.082;8.200;2023-04-21T01:26:48;99966.91;;;5.42;81.79
7200;BME280;3641;49.082;8.200;2023-04-21T01:29:15;99968.53;;;5.61;79.73
7200;BME280;3641;49.082;8.200;2023-04-21T01:31:41;99966.84;;;5.60;78.59
7200;BME280;3641;49.082;8.200;2023-04-21T01:34:11;99970.56;;;5.59;78.42
7200;BME280;3641;49.082;8.200;2023-04-21T01:36:38;99971.28;;;5.35;82.26
7200;BME280;3641;49.082;8.200;2023-04-21T01:39:06;99972.84;;;5.38;81.35
7200;BME280;3641;49.082;8.200;2023-04-21T01:41:32;99971.69;;;5.14;81.48
7200;BME280;3641;49.082;8.200;2023-04-21T01:43:58;99973.13;;;5.26;80.24
7200;BME280;3641;49.082;8.200;2023-04-21T01:46:25;99968.34;;;5.20;80.71
7200;BME280;3641;49.082;8.200;2023-04-21T01:48:52;99971.84;;;5.13;81.74
7200;BME280;3641;49.082;8.200;2023-04-21T01:51:18;99970.44;;;5.08;82.72
7200;BME280;3641;49.082;8.200;2023-04-21T01:53:44;99967.88;;;5.25;82.37
7200;BME280;3641;49.082;8.200;2023-04-21T01:56:13;99975.84;;;5.26;79.83
7200;BME280;3641;49.082;8.200;2023-04-21T01:58:40;99968.72;;;5.25;80.66
7200;BME280;3641;49.082;8.200;2023-04-21T02:01:06;99971.97;;;5.37;79.59
7200;BME280;3641;49.082;8.200;2023-04-21T02:03:33;99976.47;;;5.20;81.92
7200;BME280;3641;49.082;8.200;2023-04-21T02:06:00;99976.81;;;4.99;82.50
7200;BME280;3641;49.082;8.200;2023-04-21T02:08:26;99972.78;;;5.03;81.53
7200;BME280;3641;49.082;8.200;2023-04-21T02:10:52;99983.47;;;5.05;80.84
7200;BME280;3641;49.082;8.200;2023-04-21T02:13:20;99976.47;;;5.20;78.08
7200;BME280;3641;49.082;8.200;2023-04-21T02:15:47;99984.34;;;5.14;78.28
7200;BME280;3641;49.082;8.200;2023-04-21T02:18:13;99980.28;;;5.09;78.82
7200;BME280;3641;49.082;8.200;2023-04-21T02:20:41;99981.78;;;5.12;78.79
7200;BME280;3641;49.082;8.200;2023-04-21T02:23:07;99977.31;;;4.95;79.60
7200;BME280;3641;49.082;8.200;2023-04-21T02:25:34;99975.50;;;5.03;78.84
7200;BME280;3641;49.082;8.200;2023-04-21T02:28:00;99980.38;;;5.00;78.66
7200;BME280;3641;49.082;8.200;2023-04-21T02:30:28;99986.06;;;4.88;79.44
7200;BME280;3641;49.082;8.200;2023-04-21T02:32:54;99988.75;;;4.88;78.65
7200;BME280;3641;49.082;8.200;2023-04-21T02:35:21;99983.59;;;4.77;79.35
7200;BME280;3641;49.082;8.200;2023-04-21T02:37:47;99999.09;;;4.93;78.05
7200;BME280;3641;49.082;8.200;2023-04-21T02:40:14;99999.81;;;4.77;79.85
7200;BME280;3641;49.082;8.200;2023-04-21T02:42:40;99992.03;;;4.74;82.63
7200;BME280;3641;49.082;8.200;2023-04-21T02:45:08;99998.25;;;4.93;78.49
7200;BME280;3641;49.082;8.200;2023-04-21T02:47:36;100001.56;;;5.04;77.28
7200;BME280;3641;49.082;8.200;2023-04-21T02:50:02;99998.75;;;4.96;81.15
7200;BME280;3641;49.082;8.200;2023-04-21T02:52:29;99995.28;;;5.04;78.33
7200;BME280;3641;49.082;8.200;2023-04-21T02:54:55;99996.78;;;4.98;78.31
7200;BME280;3641;49.082;8.200;2023-04-21T02:57:22;100001.56;;;5.04;78.06
7200;BME280;3641;49.082;8.200;2023-04-21T02:59:48;100001.03;;;4.83;81.21
7200;BME280;3641;49.082;8.200;2023-04-21T03:02:15;100000.13;;;4.74;79.50
7200;BME280;3641;49.082;8.200;2023-04-21T03:04:43;99999.47;;;4.80;82.61
7200;BME280;3641;49.082;8.200;2023-04-21T03:07:11;100003.97;;;4.89;79.44
7200;BME280;3641;49.082;8.200;2023-04-21T03:09:37;99994.00;;;4.90;80.56
7200;BME280;3641;49.082;8.200;2023-04-21T03:12:04;99991.25;;;5.08;78.03
7200;BME280;3641;49.082;8.200;2023-04-21T03:14:31;99990.25;;;5.09;77.98
7200;BME280;3641;49.082;8.200;2023-04-21T03:16:57;99995.53;;;4.93;80.66
7200;BME280;3641;49.082;8.200;2023-04-21T03:19:24;99989.97;;;4.94;80.47
7200;BME280;3641;49.082;8.200;2023-04-21T03:21:51;99978.34;;;4.76;83.15
7200;BME280;3641;49.082;8.200;2023-04-21T03:24:18;99968.00;;;4.71;81.04
7200;BME280;3641;49.082;8.200;2023-04-21T03:26:45;99974.22;;;4.45;85.12
7200;BME280;3641;49.082;8.200;2023-04-21T03:29:12;99967.47;;;4.49;83.97
7200;BME280;3641;49.082;8.200;2023-04-21T03:31:38;99975.66;;;4.22;87.00
7200;BME280;3641;49.082;8.200;2023-04-21T03:34:04;99972.34;;;4.46;83.60
7200;BME280;3641;49.082;8.200;2023-04-21T03:36:31;99961.78;;;4.34;85.36
7200;BME280;3641;49.082;8.200;2023-04-21T03:38:59;99978.41;;;4.66;82.22
7200;BME280;3641;49.082;8.200;2023-04-21T03:41:25;99972.78;;;4.77;80.52
7200;BME280;3641;49.082;8.200;2023-04-21T03:43:52;99976.94;;;4.71;81.29
7200;BME280;3641;49.082;8.200;2023-04-21T03:46:19;99974.13;;;4.55;82.14
7200;BME280;3641;49.082;8.200;2023-04-21T03:48:45;99974.03;;;4.65;80.86
7200;BME280;3641;49.082;8.200;2023-04-21T03:51:13;99976.59;;;4.66;79.90
7200;BME280;3641;49.082;8.200;2023-04-21T03:53:40;99977.09;;;4.70;78.98
7200;BME280;3641;49.082;8.200;2023-04-21T03:56:08;99970.81;;;4.61;81.05
7200;BME280;3641;49.082;8.200;2023-04-21T03:58:35;99967.59;;;4.66;80.25
7200;BME280;3641;49.082;8.200;2023-04-21T04:01:04;99967.41;;;4.23;83.33
7200;BME280;3641;49.082;8.200;2023-04-21T04:03:30;99962.53;;;4.45;81.67
7200;BME280;3641;49.082;8.200;2023-04-21T04:05:57;99965.25;;;4.63;81.88
7200;BME280;3641;49.082;8.200;2023-04-21T04:08:23;99959.22;;;4.51;81.52
7200;BME280;3641;49.082;8.200;2023-04-21T04:10:49;99951.41;;;4.48;80.80
7200;BME280;3641;49.082;8.200;2023-04-21T04:13:17;99946.88;;;4.48;80.85
7200;BME280;3641;49.082;8.200;2023-04-21T04:15:45;99958.59;;;4.57;82.09
7200;BME280;3641;49.082;8.200;2023-04-21T04:18:12;99946.38;;;4.53;81.12
7200;BME280;3641;49.082;8.200;2023-04-21T04:20:38;99949.78;;;4.55;81.78
7200;BME280;3641;49.082;8.200;2023-04-21T04:23:04;99948.78;;;4.56;82.10
7200;BME280;3641;49.082;8.200;2023-04-21T04:25:31;99947.72;;;4.49;81.36
7200;BME280;3641;49.082;8.200;2023-04-21T04:27:58;99947.81;;;4.39;85.61
7200;BME280;3641;49.082;8.200;2023-04-21T04:30:26;99946.84;;;4.66;81.37
7200;BME280;3641;49.082;8.200;2023-04-21T04:32:53;99955.84;;;4.31;86.22
7200;BME280;3641;49.082;8.200;2023-04-21T04:35:22;99966.31;;;4.34;87.05
7200;BME280;3641;49.082;8.200;2023-04-21T04:37:48;99976.13;;;4.35;89.42
7200;BME280;3641;49.082;8.200;2023-04-21T04:40:15;99977.50;;;4.57;84.43
7200;BME280;3641;49.082;8.200;2023-04-21T04:42:41;99977.22;;;4.42;85.27
7200;BME280;3641;49.082;8.200;2023-04-21T04:45:09;99962.69;;;4.25;89.42
7200;BME280;3641;49.082;8.200;2023-04-21T04:47:39;99953.66;;;4.52;85.90
7200;BME280;3641;49.082;8.200;2023-04-21T04:50:06;99956.09;;;4.64;84.42
7200;BME280;3641;49.082;8.200;2023-04-21T04:52:33;99963.28;;;4.37;89.16
7200;BME280;3641;49.082;8.200;2023-04-21T04:54:59;99965.63;;;4.14;89.65
7200;BME280;3641;49.082;8.200;2023-04-21T04:57:26;99959.28;;;4.41;86.83
7200;BME280;3641;49.082;8.200;2023-04-21T04:59:53;99970.47;;;4.46;88.35
7200;BME280;3641;49.082;8.200;2023-04-21T05:02:20;99974.28;;;4.53;84.82
7200;BME280;3641;49.082;8.200;2023-04-21T05:04:49;99980.75;;;4.25;90.03
7200;BME280;3641;49.082;8.200;2023-04-21T05:07:15;99986.63;;;4.38;88.08
7200;BME280;3641;49.082;8.200;2023-04-21T05:09:42;99985.53;;;4.13;90.35
7200;BME280;3641;49.082;8.200;2023-04-21T05:12:08;99989.41;;;4.28;88.26
7200;BME280;3641;49.082;8.200;2023-04-21T05:14:35;99992.09;;;4.28;89.17
7200;BME280;3641;49.082;8.200;2023-04-21T05:17:01;99998.97;;;4.23;89.09
7200;BME280;3641;49.082;8.200;2023-04-21T05:19:28;100000.75;;;4.32;88.70
7200;BME280;3641;49.082;8.200;2023-04-21T05:21:58;99998.28;;;4.21;90.02
7200;BME280;3641;49.082;8.200;2023-04-21T05:24:26;100009.41;;;4.53;84.87
7200;BME280;3641;49.082;8.200;2023-04-21T05:26:52;99997.88;;;4.51;85.53
7200;BME280;3641;49.082;8.200;2023-04-21T05:29:19;99997.88;;;4.33;88.79
7200;BME280;3641;49.082;8.200;2023-04-21T05:31:45;100011.47;;;4.06;91.00
7200;BME280;3641;49.082;8.200;2023-04-21T05:34:12;100021.06;;;4.36;87.59
7200;BME280;3641;49.082;8.200;2023-04-21T05:36:40;100017.34;;;4.19;86.57
7200;BME280;3641;49.082;8.200;2023-04-21T05:39:08;100015.84;;;3.79;92.30
7200;BME280;3641;49.082;8.200;2023-04-21T05:41:35;100011.91;;;4.01;90.29
7200;BME280;3641;49.082;8.200;2023-04-21T05:44:01;100015.88;;;4.25;87.88
7200;BME280;3641;49.082;8.200;2023-04-21T05:46:27;100024.41;;;3.74;92.17
7200;BME280;3641;49.082;8.200;2023-04-21T05:48:55;100016.94;;;4.14;89.24
7200;BME280;3641;49.082;8.200;2023-04-21T05:51:21;100009.66;;;3.96;91.32
7200;BME280;3641;49.082;8.200;2023-04-21T05:53:47;100017.56;;;3.42;93.73
7200;BME280;3641;49.082;8.200;2023-04-21T05:56:15;100020.88;;;3.74;93.15
7200;BME280;3641;49.082;8.200;2023-04-21T05:58:42;100024.78;;;3.79;92.56
7200;BME280;3641;49.082;8.200;2023-04-21T06:01:08;100026.16;;;3.66;93.76
7200;BME280;3641;49.082;8.200;2023-04-21T06:03:35;100029.69;;;3.94;91.41
7200;BME280;3641;49.082;8.200;2023-04-21T06:06:02;100017.38;;;3.91;92.07
7200;BME280;3641;49.082;8.200;2023-04-21T06:08:30;100027.28;;;3.91;92.29
7200;BME280;3641;49.082;8.200;2023-04-21T06:10:56;100031.13;;;4.16;89.13
7200;BME280;3641;49.082;8.200;2023-04-21T06:13:24;100032.63;;;4.28;86.70
7200;BME280;3641;49.082;8.200;2023-04-21T06:15:51;100038.53;;;3.96;91.37
7200;BME280;3641;49.082;8.200;2023-04-21T06:18:18;100030.47;;;4.32;87.04
7200;BME280;3641;49.082;8.200;2023-04-21T06:20:49;100023.41;;;4.21;89.48
7200;BME280;3641;49.082;8.200;2023-04-21T06:23:15;100029.47;;;4.33;87.76
7200;BME280;3641;49.082;8.200;2023-04-21T06:25:42;100030.63;;;4.30;89.16
7200;BME280;3641;49.082;8.200;2023-04-21T06:28:08;100032.16;;;3.87;93.48
7200;BME280;3641;49.082;8.200;2023-04-21T06:30:36;100031.44;;;4.13;92.67
7200;BME280;3641;49.082;8.200;2023-04-21T06:33:03;100036.59;;;4.52;89.48
7200;BME280;3641;49.082;8.200;2023-04-21T06:35:30;100031.09;;;4.62;90.04
7200;BME280;3641;49.082;8.200;2023-04-21T06:37:57;100034.19;;;4.49;90.76
7200;BME280;3641;49.082;8.200;2023-04-21T06:40:23;100034.56;;;4.36;91.59
7200;BME280;3641;49.082;8.200;2023-04-21T06:42:50;100032.72;;;4.36;93.29
7200;BME280;3641;49.082;8.200;2023-04-21T06:45:16;100035.19;;;4.48;91.07
7200;BME280;3641;49.082;8.200;2023-04-21T06:47:44;100025.09;;;4.68;90.58
7200;BME280;3641;49.082;8.200;2023-04-21T06:50:11;100028.84;;;4.75;90.92
7200;BME280;3641;49.082;8.200;2023-04-21T06:52:37;100032.03;;;4.88;88.52
7200;BME280;3641;49.082;8.200;2023-04-21T06:55:05;100025.31;;;4.75;92.40
7200;BME280;3641;49.082;8.200;2023-04-21T06:57:31;100024.38;;;4.84;92.07
7200;BME280;3641;49.082;8.200;2023-04-21T06:59:58;100025.75;;;5.06;87.99
7200;BME280;3641;49.082;8.200;2023-04-21T07:02:24;100024.63;;;5.17;89.16
7200;BME280;3641;49.082;8.200;2023-04-21T07:04:52;100023.34;;;4.85;93.39
7200;BME280;3641;49.082;8.200;2023-04-21T07:07:18;100019.03;;;5.18;88.99
7200;BME280;3641;49.082;8.200;2023-04-21T07:09:45;100015.81;;;5.15;91.77
7200;BME280;3641;49.082;8.200;2023-04-21T07:12:12;100015.88;;;5.23;89.73
7200;BME280;3641;49.082;8.200;2023-04-21T07:14:39;100013.16;;;5.49;86.82
7200;BME280;3641;49.082;8.200;2023-04-21T07:17:05;100013.66;;;5.44;89.92
7200;BME280;3641;49.082;8.200;2023-04-21T07:19:32;100014.16;;;5.48;90.42
7200;BME280;3641;49.082;8.200;2023-04-21T07:22:00;100009.28;;;5.52;90.16
7200;BME280;3641;49.082;8.200;2023-04-21T07:24:26;100012.59;;;5.72;88.99
7200;BME280;3641;49.082;8.200;2023-04-21T07:26:52;100011.38;;;5.66;90.71
7200;BME280;3641;49.082;8.200;2023-04-21T07:29:19;100009.16;;;5.61;90.03
7200;BME280;3641;49.082;8.200;2023-04-21T07:31:45;100002.34;;;5.49;93.55
7200;BME280;3641;49.082;8.200;2023-04-21T07:34:12;100011.25;;;5.76;93.23
7200;BME280;3641;49.082;8.200;2023-04-21T07:36:38;100006.66;;;6.03;90.12
7200;BME280;3641;49.082;8.200;2023-04-21T07:39:06;100002.63;;;6.15;91.65
7200;BME280;3641;49.082;8.200;2023-04-21T07:41:33;100001.91;;;6.05;91.77
7200;BME280;3641;49.082;8.200;2023-04-21T07:43:59;99999.63;;;5.92;93.36
7200;BME280;3641;49.082;8.200;2023-04-21T07:46:26;100003.16;;;6.27;88.91
7200;BME280;3641;49.082;8.200;2023-04-21T07:48:54;99997.25;;;6.40;89.64
7200;BME280;3641;49.082;8.200;2023-04-21T07:51:21;99989.16;;;6.48;90.60
7200;BME280;3641;49.082;8.200;2023-04-21T07:53:48;99993.22;;;6.60;90.84
7200;BME280;3641;49.082;8.200;2023-04-21T07:56:16;99993.91;;;6.62;90.68
7200;BME280;3641;49.082;8.200;2023-04-21T07:58:42;99990.50;;;6.68;92.28
7200;BME280;3641;49.082;8.200;2023-04-21T08:01:09;99986.44;;;6.64;92.21
7200;BME280;3641;49.082;8.200;2023-04-21T08:03:36;99985.94;;;6.77;90.94
7200;BME280;3641;49.082;8.200;2023-04-21T08:06:02;99991.69;;;6.90;91.25
7200;BME280;3641;49.082;8.200;2023-04-21T08:08:29;99991.34;;;7.02;89.67
7200;BME280;3641;49.082;8.200;2023-04-21T08:10:56;99994.06;;;7.10;89.89
7200;BME280;3641;49.082;8.200;2023-04-21T08:13:24;99981.16;;;7.20;90.00
7200;BME280;3641;49.082;8.200;2023-04-21T08:15:50;99987.75;;;7.34;89.58
7200;BME280;3641;49.082;8.200;2023-04-21T08:18:17;99976.69;;;7.44;88.35
7200;BME280;3641;49.082;8.200;2023-04-21T08:20:44;99967.16;;;7.56;87.55
7200;BME280;3641;49.082;8.200;2023-04-21T08:23:12;99966.53;;;7.77;89.32
7200;BME280;3641;49.082;8.200;2023-04-21T08:25:38;99967.34;;;7.86;88.37
7200;BME280;3641;49.082;8.200;2023-04-21T08:28:05;99958.97;;;7.96;87.17
7200;BME280;3641;49.082;8.200;2023-04-21T08:30:33;99954.53;;;8.03;87.41
7200;BME280;3641;49.082;8.200;2023-04-21T08:32:59;99950.88;;;8.19;87.41
7200;BME280;3641;49.082;8.200;2023-04-21T08:35:26;99954.34;;;8.28;86.90
7200;BME280;3641;49.082;8.200;2023-04-21T08:37:52;99947.19;;;8.35;87.77
7200;BME280;3641;49.082;8.200;2023-04-21T08:40:19;99942.88;;;8.49;86.00
7200;BME280;3641;49.082;8.200;2023-04-21T08:42:47;99944.97;;;8.62;86.31
7200;BME280;3641;49.082;8.200;2023-04-21T08:45:13;99937.09;;;8.67;85.49
7200;BME280;3641;49.082;8.200;2023-04-21T08:47:42;99934.13;;;8.77;85.77
7200;BME280;3641;49.082;8.200;2023-04-21T08:50:12;99928.44;;;8.86;85.26
7200;BME280;3641;49.082;8.200;2023-04-21T08:52:39;99936.25;;;9.04;84.49
7200;BME280;3641;49.082;8.200;2023-04-21T08:55:06;99931.16;;;9.01;85.02
7200;BME280;3641;49.082;8.200;2023-04-21T08:57:32;99933.75;;;9.18;83.40
7200;BME280;3641;49.082;8.200;2023-04-21T08:59:59;99928.75;;;9.21;83.77
7200;BME280;3641;49.082;8.200;2023-04-21T09:02:25;99916.00;;;9.37;83.31
7200;BME280;3641;49.082;8.200;2023-04-21T09:04:53;99925.47;;;9.56;82.91
7200;BME280;3641;49.082;8.200;2023-04-21T09:07:31;99916.94;;;9.59;82.79
7200;BME280;3641;49.082;8.200;2023-04-21T09:09:58;99918.88;;;9.80;81.84
7200;BME280;3641;49.082;8.200;2023-04-21T09:12:26;99924.53;;;10.00;79.86
7200;BME280;3641;49.082;8.200;2023-04-21T09:14:52;99929.28;;;10.13;79.19
7200;BME280;3641;49.082;8.200;2023-04-21T09:17:21;99912.09;;;10.12;79.88
7200;BME280;3641;49.082;8.200;2023-04-21T09:19:49;99905.47;;;10.22;80.58
7200;BME280;3641;49.082;8.200;2023-04-21T09:22:17;99896.47;;;10.43;77.80
7200;BME280;3641;49.082;8.200;2023-04-21T09:24:45;99898.44;;;10.49;77.14
7200;BME280;3641;49.082;8.200;2023-04-21T09:27:14;99901.13;;;10.70;76.61
7200;BME280;3641;49.082;8.200;2023-04-21T09:29:44;99892.72;;;10.72;76.59
7200;BME280;3641;49.082;8.200;2023-04-21T09:32:15;99897.75;;;10.68;77.44
7200;BME280;3641;49.082;8.200;2023-04-21T09:34:42;99895.94;;;10.76;76.07
7200;BME280;3641;49.082;8.200;2023-04-21T09:37:10;99892.81;;;10.79;75.92
7200;BME280;3641;49.082;8.200;2023-04-21T09:39:38;99895.16;;;10.82;76.81
7200;BME280;3641;49.082;8.200;2023-04-21T09:42:09;99889.78;;;10.95;76.31
7200;BME280;3641;49.082;8.200;2023-04-21T09:44:36;99883.31;;;11.03;77.42
7200;BME280;3641;49.082;8.200;2023-04-21T09:47:03;99878.53;;;11.12;75.09
7200;BME280;3641;49.082;8.200;2023-04-21T09:49:34;99879.63;;;11.17;74.81
7200;BME280;3641;49.082;8.200;2023-04-21T09:52:02;99879.91;;;11.36;73.83
7200;BME280;3641;49.082;8.200;2023-04-21T09:54:29;99867.69;;;11.67;70.78
7200;BME280;3641;49.082;8.200;2023-04-21T09:57:00;99874.69;;;11.89;70.44
7200;BME280;3641;49.082;8.200;2023-04-21T09:59:31;99868.56;;;11.80;71.40
7200;BME280;3641;49.082;8.200;2023-04-21T10:01:58;99878.03;;;11.85;70.09
7200;BME280;3641;49.082;8.200;2023-04-21T10:04:27;99874.69;;;11.82;70.96
7200;BME280;3641;49.082;8.200;2023-04-21T10:06:57;99874.13;;;12.01;70.43
7200;BME280;3641;49.082;8.200;2023-04-21T10:09:28;99871.19;;;12.15;68.16
7200;BME280;3641;49.082;8.200;2023-04-21T10:11:55;99859.84;;;12.18;69.29
7200;BME280;3641;49.082;8.200;2023-04-21T10:14:25;99860.72;;;12.46;67.30
7200;BME280;3641;49.082;8.200;2023-04-21T10:16:55;99858.41;;;12.63;66.18
7200;BME280;3641;49.082;8.200;2023-04-21T10:19:22;99849.75;;;12.86;64.80
7200;BME280;3641;49.082;8.200;2023-04-21T10:21:49;99846.56;;;13.09;65.17
7200;BME280;3641;49.082;8.200;2023-04-21T10:24:15;99841.19;;;13.48;62.75
7200;BME280;3641;49.082;8.200;2023-04-21T10:26:42;99847.63;;;13.73;62.71
7200;BME280;3641;49.082;8.200;2023-04-21T10:29:08;99839.47;;;13.60;63.92
7200;BME280;3641;49.082;8.200;2023-04-21T10:31:49;99842.34;;;13.72;63.99
7200;BME280;3641;49.082;8.200;2023-04-21T10:34:17;99839.19;;;14.07;65.30
7200;BME280;3641;49.082;8.200;2023-04-21T10:37:06;99838.03;;;14.21;62.40
7200;BME280;3641;49.082;8.200;2023-04-21T10:39:34;99825.16;;;14.53;62.25
7200;BME280;3641;49.082;8.200;2023-04-21T10:42:21;99827.50;;;14.75;61.66
7200;BME280;3641;49.082;8.200;2023-04-21T10:44:59;99830.13;;;14.88;62.56
7200;BME280;3641;49.082;8.200;2023-04-21T10:47:29;99832.09;;;14.81;65.78
7200;BME280;3641;49.082;8.200;2023-04-21T10:49:58;99827.50;;;14.75;62.11
7200;BME280;3641;49.082;8.200;2023-04-21T10:52:31;99817.50;;;14.56;66.62
7200;BME280;3641;49.082;8.200;2023-04-21T10:55:06;99810.84;;;14.45;65.96
7200;BME280;3641;49.082;8.200;2023-04-21T10:57:34;99809.22;;;15.06;61.86
7200;BME280;3641;49.082;8.200;2023-04-21T11:00:01;99810.03;;;14.69;65.79
7200;BME280;3641;49.082;8.200;2023-04-21T11:02:32;99805.56;;;14.94;63.01
7200;BME280;3641;49.082;8.200;2023-04-21T11:04:59;99805.47;;;15.37;58.29
7200;BME280;3641;49.082;8.200;2023-04-21T11:07:26;99793.19;;;15.03;62.98
7200;BME280;3641;49.082;8.200;2023-04-21T11:09:57;99784.44;;;15.13;65.16
7200;BME280;3641;49.082;8.200;2023-04-21T11:12:26;99780.34;;;15.15;62.04
7200;BME280;3641;49.082;8.200;2023-04-21T11:14:53;99780.69;;;15.25;59.61
7200;BME280;3641;49.082;8.200;2023-04-21T11:17:20;99777.22;;;15.12;63.79
7200;BME280;3641;49.082;8.200;2023-04-21T11:19:50;99781.22;;;15.65;58.27
7200;BME280;3641;49.082;8.200;2023-04-21T11:22:17;99782.44;;;15.69;57.35
7200;BME280;3641;49.082;8.200;2023-04-21T11:24:44;99783.16;;;15.46;61.35
7200;BME280;3641;49.082;8.200;2023-04-21T11:27:11;99775.41;;;15.24;61.39
7200;BME280;3641;49.082;8.200;2023-04-21T11:29:39;99780.38;;;15.64;60.46
7200;BME280;3641;49.082;8.200;2023-04-21T11:32:06;99776.06;;;15.87;57.36
7200;BME280;3641;49.082;8.200;2023-04-21T11:34:33;99786.72;;;15.83;58.53
7200;BME280;3641;49.082;8.200;2023-04-21T11:37:00;99774.06;;;15.64;60.96
7200;BME280;3641;49.082;8.200;2023-04-21T11:39:27;99773.19;;;15.63;59.04
7200;BME280;3641;49.082;8.200;2023-04-21T11:41:53;99780.53;;;15.69;62.49
7200;BME280;3641;49.082;8.200;2023-04-21T11:44:32;99766.34;;;15.84;59.19
7200;BME280;3641;49.082;8.200;2023-04-21T11:46:58;99772.41;;;15.74;58.73
7200;BME280;3641;49.082;8.200;2023-04-21T11:49:26;99763.09;;;15.75;59.90
7200;BME280;3641;49.082;8.200;2023-04-21T11:51:54;99763.25;;;16.23;58.54
7200;BME280;3641;49.082;8.200;2023-04-21T11:54:21;99755.06;;;16.04;57.68
7200;BME280;3641;49.082;8.200;2023-04-21T11:56:49;99755.53;;;16.01;58.61
7200;BME280;3641;49.082;8.200;2023-04-21T11:59:17;99748.78;;;15.97;59.55
7200;BME280;3641;49.082;8.200;2023-04-21T12:01:48;99749.66;;;16.09;57.94
7200;BME280;3641;49.082;8.200;2023-04-21T12:04:15;99751.72;;;16.02;59.74
7200;BME280;3641;49.082;8.200;2023-04-21T12:06:42;99750.13;;;15.94;64.49
7200;BME280;3641;49.082;8.200;2023-04-21T12:09:15;99747.97;;;15.96;60.26
7200;BME280;3641;49.082;8.200;2023-04-21T12:11:46;99751.09;;;16.00;61.63
7200;BME280;3641;49.082;8.200;2023-04-21T12:14:14;99745.25;;;16.08;58.83
7200;BME280;3641;49.082;8.200;2023-04-21T12:16:41;99742.50;;;16.32;57.65
7200;BME280;3641;49.082;8.200;2023-04-21T12:19:07;99731.38;;;16.27;58.90
7200;BME280;3641;49.082;8.200;2023-04-21T12:21:36;99741.28;;;16.16;59.39
7200;BME280;3641;49.082;8.200;2023-04-21T12:24:03;99743.72;;;16.24;61.20
7200;BME280;3641;49.082;8.200;2023-04-21T12:26:29;99732.47;;;16.49;59.92
7200;BME280;3641;49.082;8.200;2023-04-21T12:28:57;99738.22;;;16.36;62.12
7200;BME280;3641;49.082;8.200;2023-04-21T12:31:25;99748.63;;;16.58;57.69
7200;BME280;3641;49.082;8.200;2023-04-21T12:33:52;99739.06;;;16.72;57.21
7200;BME280;3641;49.082;8.200;2023-04-21T12:36:18;99738.44;;;16.70;57.62
7200;BME280;3641;49.082;8.200;2023-04-21T12:38:45;99740.59;;;16.80;56.88
7200;BME280;3641;49.082;8.200;2023-04-21T12:41:11;99736.28;;;16.84;56.47
7200;BME280;3641;49.082;8.200;2023-04-21T12:43:38;99740.75;;;16.61;57.68
7200;BME280;3641;49.082;8.200;2023-04-21T12:46:06;99741.91;;;16.65;57.63
7200;BME280;3641;49.082;8.200;2023-04-21T12:48:32;99724.78;;;16.63;59.71
7200;BME280;3641;49.082;8.200;2023-04-21T12:50:59;99734.34;;;16.84;57.74
7200;BME280;3641;49.082;8.200;2023-04-21T12:53:25;99726.22;;;16.89;56.52
7200;BME280;3641;49.082;8.200;2023-04-21T12:55:52;99729.84;;;16.90;57.15
7200;BME280;3641;49.082;8.200;2023-04-21T12:58:18;99719.16;;;16.70;60.53
7200;BME280;3641;49.082;8.200;2023-04-21T13:00:45;99714.81;;;17.10;56.41
7200;BME280;3641;49.082;8.200;2023-04-21T13:03:13;99709.56;;;16.96;58.71
7200;BME280;3641;49.082;8.200;2023-04-21T13:05:39;99705.47;;;16.99;56.93
7200;BME280;3641;49.082;8.200;2023-04-21T13:08:06;99716.44;;;17.22;57.42
7200;BME280;3641;49.082;8.200;2023-04-21T13:10:32;99710.09;;;17.22;56.37
7200;BME280;3641;49.082;8.200;2023-04-21T13:12:59;99702.38;;;16.95;57.62
7200;BME280;3641;49.082;8.200;2023-04-21T13:15:25;99707.25;;;17.05;58.22
7200;BME280;3641;49.082;8.200;2023-04-21T13:17:51;99701.16;;;17.03;59.19
7200;BME280;3641;49.082;8.200;2023-04-21T13:20:20;99701.06;;;16.86;57.59
7200;BME280;3641;49.082;8.200;2023-04-21T13:22:46;99700.44;;;17.08;56.69
7200;BME280;3641;49.082;8.200;2023-04-21T13:25:13;99699.94;;;17.11;56.96
7200;BME280;3641;49.082;8.200;2023-04-21T13:27:39;99695.16;;;17.06;57.61